Time;durP1;ratioP1;P1;durP2;ratioP2;P2;SDS_P1;SDS_P2;PMS_P1;PMS_P2;Temp;Humidity;BMP_temperature;BMP_pressure;BME280_temperature;BME280_humidity;BME280_pressure;Samples;Min_cycle;Max_cycle;Signal;HPM_P1;HPM_P2
2021/10/05 00:04:07;;;;;;;48.00;44.00;;;;;;;15.04;100.00;100212.29;1941094;74;33542;-76
2021/10/05 00:09:31;;;;;;;46.93;43.37;;;;;;;15.12;100.00;100215.65;1941079;74;33473;-76
2021/10/05 00:14:56;;;;;;;46.30;42.83;;;;;;;15.20;100.00;100201.39;1941104;74;33456;-67
2021/10/05 00:20:21;;;;;;;46.90;42.97;;;;;;;15.18;100.00;100182.73;1940966;74;32994;-77
2021/10/05 00:25:45;;;;;;;46.80;43.00;;;;;;;15.20;100.00;100179.84;1941110;74;33519;-68
2021/10/05 00:31:10;;;;;;;48.97;45.17;;;;;;;15.12;100.00;100182.08;1940966;74;32986;-76
2021/10/05 00:36:34;;;;;;;52.50;48.20;;;;;;;15.02;100.00;100169.83;1941116;74;32959;-76
2021/10/05 00:41:59;;;;;;;48.10;43.93;;;;;;;14.90;100.00;100157.92;1941125;74;33494;-68
2021/10/05 00:47:25;;;;;;;49.80;45.60;;;;;;;14.82;100.00;100132.77;1941273;74;33118;-67
2021/10/05 00:52:51;;;;;;;49.03;44.83;;;;;;;14.75;100.00;100122.11;1941106;74;33584;-68
2021/10/05 00:58:15;;;;;;;45.60;41.83;;;;;;;14.71;100.00;100135.67;1941151;74;33071;-67
2021/10/05 01:03:41;;;;;;;46.90;42.63;;;;;;;14.71;100.00;100104.92;1941187;74;33508;-68
2021/10/05 01:09:05;;;;;;;46.60;42.47;;;;;;;14.75;100.00;100110.09;1941041;74;32986;-67
2021/10/05 01:14:30;;;;;;;48.37;44.30;;;;;;;14.73;100.00;100086.66;1940985;74;33120;-76
2021/10/05 01:19:55;;;;;;;46.00;42.13;;;;;;;14.66;100.00;100064.56;1941157;74;33486;-67
2021/10/05 01:25:20;;;;;;;45.73;41.53;;;;;;;14.66;100.00;100041.63;1941028;74;33042;-76
2021/10/05 01:30:45;;;;;;;47.40;43.17;;;;;;;14.70;100.00;100046.80;1941160;74;33032;-76
2021/10/05 01:36:11;;;;;;;46.47;42.73;;;;;;;14.68;100.00;100039.30;1940985;74;32997;-77
2021/10/05 01:41:36;;;;;;;46.67;42.87;;;;;;;14.70;100.00;100006.84;1941006;74;32986;-67
2021/10/05 01:47:02;;;;;;;46.67;43.07;;;;;;;14.71;100.00;99981.94;1941081;74;32982;-69
2021/10/05 01:52:29;;;;;;;47.17;43.10;;;;;;;14.74;100.00;99981.25;1940861;74;33077;-68
2021/10/05 01:57:54;;;;;;;45.87;42.27;;;;;;;14.74;100.00;99957.49;1941007;74;33061;-68
2021/10/05 02:03:20;;;;;;;47.10;43.40;;;;;;;14.74;100.00;99944.91;1940890;74;33062;-68
2021/10/05 02:08:46;;;;;;;45.20;41.60;;;;;;;14.80;100.00;99940.80;1941088;74;32986;-68
2021/10/05 02:14:11;;;;;;;45.77;42.17;;;;;;;14.84;100.00;99930.58;1941010;74;32992;-77
2021/10/05 02:19:35;;;;;;;44.93;41.60;;;;;;;14.84;100.00;100004.66;1940869;74;33007;-68
2021/10/05 02:25:00;;;;;;;44.20;40.70;;;;;;;14.73;100.00;100008.38;1940821;74;33543;-66
2021/10/05 02:30:25;;;;;;;46.37;42.97;;;;;;;14.52;100.00;100009.67;1940878;74;32994;-68
2021/10/05 02:35:49;;;;;;;42.97;39.67;;;;;;;14.46;100.00;99997.62;1941105;74;33452;-77
2021/10/05 02:41:13;;;;;;;43.27;39.87;;;;;;;14.36;100.00;99977.83;1940895;74;32999;-68
2021/10/05 02:46:39;;;;;;;47.33;43.67;;;;;;;14.29;100.00;99933.37;1941127;74;33480;-77
2021/10/05 02:52:05;;;;;;;46.47;43.07;;;;;;;14.17;100.00;99906.10;1940932;74;33054;-68
2021/10/05 02:57:29;;;;;;;47.73;44.43;;;;;;;14.11;100.00;99957.14;1941086;74;33517;-77
2021/10/05 03:02:53;;;;;;;47.43;44.03;;;;;;;14.04;100.00;99935.03;1940911;74;33048;-68
2021/10/05 03:08:18;;;;;;;45.77;42.23;;;;;;;13.83;100.00;99898.60;1941008;74;33086;-77
2021/10/05 03:13:42;;;;;;;46.80;43.30;;;;;;;13.82;100.00;99898.95;1940842;74;33057;-68
2021/10/05 03:19:06;;;;;;;48.30;44.90;;;;;;;13.71;100.00;99883.11;1940919;74;32992;-68
2021/10/05 03:24:31;;;;;;;47.63;44.33;;;;;;;13.73;100.00;99887.80;1940979;74;33030;-68
2021/10/05 03:29:55;;;;;;;48.63;45.17;;;;;;;13.62;100.00;99911.02;1941092;74;33559;-77
2021/10/05 03:35:19;;;;;;;47.33;44.00;;;;;;;13.63;100.00;99921.61;1940908;74;33214;-77
2021/10/05 03:40:44;;;;;;;47.03;43.63;;;;;;;13.50;100.00;99913.64;1940915;74;33049;-68
2021/10/05 03:46:09;;;;;;;45.67;42.47;;;;;;;13.53;100.00;99918.56;1940890;74;33558;-77
2021/10/05 03:51:34;;;;;;;46.50;43.10;;;;;;;13.47;100.00;99924.07;1941014;74;32991;-67
2021/10/05 03:56:59;;;;;;;46.10;42.70;;;;;;;13.38;100.00;99879.18;1940970;74;32986;-77
2021/10/05 04:02:24;;;;;;;46.73;43.33;;;;;;;13.35;100.00;99896.58;1875231;74;39784;-77
2021/10/05 04:07:48;;;;;;;52.97;48.97;;;;;;;13.32;100.00;99895.24;1941007;74;33059;-67
2021/10/05 04:13:13;;;;;;;51.70;48.20;;;;;;;13.45;100.00;99886.47;1941247;74;33463;-77
2021/10/05 04:18:37;;;;;;;49.23;45.73;;;;;;;13.37;100.00;99892.30;1941150;74;33508;-77
2021/10/05 04:24:19;;;;;;;45.23;41.73;;;;;;;13.34;100.00;99904.69;2009994;71;32884;-68
2021/10/05 04:29:44;;;;;;;47.37;43.77;;;;;;;13.34;100.00;99884.59;1940900;74;33173;-77
2021/10/05 04:35:10;;;;;;;50.07;46.53;;;;;;;13.35;100.00;99889.61;1941073;74;33018;-67
2021/10/05 04:40:35;;;;;;;48.70;45.20;;;;;;;13.37;100.00;99881.72;1940940;74;32983;-77
2021/10/05 04:46:00;;;;;;;49.90;46.10;;;;;;;13.37;100.00;99889.52;1941073;74;33521;-74
2021/10/05 04:51:24;;;;;;;49.77;45.97;;;;;;;12.72;100.00;99807.31;1940827;74;33071;-77
2021/10/05 04:56:49;;;;;;;46.03;42.50;;;;;;;13.17;100.00;99907.71;1940898;74;32971;-76
2021/10/05 05:02:14;;;;;;;47.27;43.67;;;;;;;13.14;100.00;99919.48;1940933;74;33137;-68
2021/10/05 05:07:41;;;;;;;51.27;47.57;;;;;;;13.07;100.00;99919.70;1941253;74;33491;-68
2021/10/05 05:13:05;;;;;;;52.57;48.67;;;;;;;13.01;100.00;99920.98;1941174;74;33528;-68
2021/10/05 05:18:30;;;;;;;46.97;43.47;;;;;;;12.96;100.00;99910.83;1941151;74;33140;-68
2021/10/05 05:23:54;;;;;;;47.67;44.20;;;;;;;12.91;100.00;99905.97;1941095;74;33596;-68
2021/10/05 05:29:18;;;;;;;46.07;42.77;;;;;;;12.81;100.00;99909.87;1940972;74;32983;-68
2021/10/05 05:34:43;;;;;;;53.33;49.47;;;;;;;12.74;100.00;99899.77;1940958;74;33030;-77
2021/10/05 05:40:09;;;;;;;48.83;45.17;;;;;;;12.73;100.00;99898.95;1941135;74;33456;-68
2021/10/05 05:45:35;;;;;;;50.00;46.50;;;;;;;12.68;100.00;99905.23;1941187;74;33465;-68
2021/10/05 05:51:00;;;;;;;47.73;44.23;;;;;;;12.60;100.00;99913.81;1941120;74;33593;-68
2021/10/05 05:56:24;;;;;;;49.20;45.13;;;;;;;12.55;100.00;99910.33;1940927;74;33054;-68
2021/10/05 06:01:49;;;;;;;50.80;47.10;;;;;;;12.50;100.00;99921.61;1940951;74;33089;-68
2021/10/05 06:07:14;;;;;;;50.10;46.20;;;;;;;12.44;100.00;99922.91;1941202;74;33076;-77
2021/10/05 06:12:39;;;;;;;49.93;46.13;;;;;;;12.31;100.00;99935.78;1940963;74;33170;-69
2021/10/05 06:18:09;;;;;;;49.63;45.90;;;;;;;12.30;100.00;99944.70;1941189;74;33573;-68
2021/10/05 06:23:34;;;;;;;50.77;46.73;;;;;;;12.27;100.00;99948.70;1907740;75;33602;-67
2021/10/05 06:28:59;;;;;;;50.87;46.73;;;;;;;12.12;100.00;99950.47;1940891;74;32975;-67
2021/10/05 06:34:23;;;;;;;48.20;44.20;;;;;;;12.14;100.00;99957.39;1941271;74;32992;-77
2021/10/05 06:39:48;;;;;;;50.57;46.97;;;;;;;12.06;100.00;99967.89;1941109;74;33105;-76
2021/10/05 06:45:13;;;;;;;50.23;46.27;;;;;;;11.89;100.00;99976.11;1941052;74;33105;-68
2021/10/05 06:50:37;;;;;;;48.57;44.77;;;;;;;11.95;100.00;99969.83;1941206;74;32970;-77
2021/10/05 06:56:02;;;;;;;48.20;44.37;;;;;;;12.01;100.00;99969.41;1940909;74;33046;-70
2021/10/05 07:01:27;;;;;;;51.80;48.03;;;;;;;12.03;100.00;99982.98;1941140;74;32960;-69
2021/10/05 07:06:51;;;;;;;52.47;48.50;;;;;;;12.07;100.00;99984.00;1941111;74;33538;-69
2021/10/05 07:12:16;;;;;;;58.57;54.53;;;;;;;12.01;100.00;99986.11;1940917;74;32962;-69
2021/10/05 07:17:41;;;;;;;57.60;53.13;;;;;;;12.10;100.00;99992.56;1940972;74;33088;-68
2021/10/05 07:23:06;;;;;;;56.33;52.43;;;;;;;12.04;100.00;99992.98;1941031;74;32971;-68
2021/10/05 07:28:31;;;;;;;57.53;53.20;;;;;;;12.06;100.00;99989.34;1941132;74;33430;-68
2021/10/05 07:33:55;;;;;;;58.47;54.57;;;;;;;12.08;100.00;99992.61;1941149;74;33460;-69
2021/10/05 07:39:19;;;;;;;51.03;47.03;;;;;;;12.17;100.00;99996.28;1941102;74;33520;-74
2021/10/05 07:44:44;;;;;;;55.63;51.70;;;;;;;12.21;100.00;100005.08;1940946;74;32955;-68
2021/10/05 07:50:09;;;;;;;55.40;51.40;;;;;;;12.45;100.00;100001.95;1940978;74;33349;-74
2021/10/05 07:55:34;;;;;;;55.77;52.03;;;;;;;12.65;100.00;100005.61;1941132;74;33477;-68
2021/10/05 08:00:59;;;;;;;55.10;51.30;;;;;;;12.70;100.00;100013.02;1941084;74;33063;-68
2021/10/05 08:06:24;;;;;;;56.40;52.70;;;;;;;12.92;100.00;100026.08;1941173;74;33544;-68
2021/10/05 08:11:49;;;;;;;51.10;47.60;;;;;;;13.01;100.00;100019.94;1941147;74;33027;-68
2021/10/05 08:17:14;;;;;;;53.27;49.77;;;;;;;12.99;100.00;100026.42;1941216;74;33482;-74
2021/10/05 08:22:39;;;;;;;52.53;48.93;;;;;;;12.98;100.00;100026.16;1941054;74;33501;-68
2021/10/05 08:28:05;;;;;;;50.80;47.47;;;;;;;12.94;100.00;100020.98;1941289;74;33487;-74
2021/10/05 08:33:30;;;;;;;48.77;45.20;;;;;;;13.22;100.00;100008.52;1941153;74;33042;-74
2021/10/05 08:38:54;;;;;;;47.67;44.70;;;;;;;15.35;100.00;100005.84;1940890;74;33042;-72
2021/10/05 08:44:22;;;;;;;49.57;46.37;;;;;;;14.24;100.00;100006.98;1940981;74;32984;-73
2021/10/05 08:49:47;;;;;;;51.10;47.60;;;;;;;13.88;100.00;100000.91;1940862;74;33089;-72
2021/10/05 08:55:11;;;;;;;48.83;45.23;;;;;;;13.91;100.00;100001.06;1941126;74;33485;-73
2021/10/05 09:00:37;;;;;;;52.00;48.70;;;;;;;13.78;100.00;100013.20;1941200;74;33540;-73
2021/10/05 09:06:11;;;;;;;53.00;49.70;;;;;;;14.02;100.00;99994.02;1941052;74;33042;-67
2021/10/05 09:11:42;;;;;;;52.13;48.70;;;;;;;13.71;100.00;99983.58;1941178;74;33069;-67
2021/10/05 09:17:08;;;;;;;59.43;55.97;;;;;;;13.79;100.00;99996.71;1941200;74;33468;-67
2021/10/05 09:22:32;;;;;;;49.97;46.97;;;;;;;13.98;100.00;99995.00;1940931;74;32974;-73
2021/10/05 09:28:20;;;;;;;49.70;46.63;;;;;;;14.02;100.00;100007.98;2009779;71;32799;-68
2021/10/05 09:33:55;;;;;;;49.30;44.97;;;;;;;13.77;100.00;100011.58;1940953;74;33158;-68
2021/10/05 09:39:21;;;;;;;41.83;39.43;;;;;;;13.91;100.00;100010.01;1941113;74;33513;-68
2021/10/05 09:44:54;;;;;;;40.90;38.60;;;;;;;14.06;100.00;100009.53;1940927;74;32980;-75
2021/10/05 09:50:35;;;;;;;44.47;41.57;;;;;;;14.19;100.00;100011.91;1941272;74;32967;-68
2021/10/05 09:56:01;;;;;;;41.17;38.87;;;;;;;14.36;100.00;100025.33;1940893;74;32978;-67
2021/10/05 10:01:28;;;;;;;43.13;40.57;;;;;;;14.36;100.00;100035.09;1940732;74;32984;-68
2021/10/05 10:07:12;;;;;;;46.13;42.03;;;;;;;14.19;100.00;100039.27;2009586;71;32876;-75
2021/10/05 10:12:39;;;;;;;41.10;38.80;;;;;;;14.42;100.00;100032.94;1940900;74;33547;-69
2021/10/05 10:18:11;;;;;;;41.90;39.50;;;;;;;14.31;100.00;100041.39;1940776;74;32987;-68
2021/10/05 10:23:39;;;;;;;46.03;43.40;;;;;;;14.16;100.00;100046.09;1907917;75;33188;-76
2021/10/05 10:29:05;;;;;;;43.97;41.53;;;;;;;13.98;100.00;100052.24;1941008;74;33052;-67
2021/10/05 10:34:32;;;;;;;46.17;43.47;;;;;;;13.95;100.00;100064.04;1941183;74;33071;-67
2021/10/05 10:40:06;;;;;;;44.07;41.57;;;;;;;13.86;100.00;100072.41;1941004;74;32993;-75
2021/10/05 10:45:30;;;;;;;46.40;43.80;;;;;;;14.00;100.00;100075.88;1941084;74;32989;-67
2021/10/05 10:51:00;;;;;;;43.87;41.37;;;;;;;13.86;100.00;100084.17;1940955;74;32992;-73
2021/10/05 10:56:59;;;;;;;42.90;40.50;;;;;;;13.91;100.00;100083.42;2009996;71;32879;-75
2021/10/05 11:02:24;;;;;;;44.27;41.67;;;;;;;14.16;100.00;100087.98;1941153;74;33151;-66
2021/10/05 11:07:50;;;;;;;43.70;41.13;;;;;;;14.56;100.00;100088.08;1941070;74;32997;-74
2021/10/05 11:13:19;;;;;;;41.27;38.97;;;;;;;14.57;100.00;100097.54;1941063;74;33499;-68
2021/10/05 11:18:45;;;;;;;47.63;44.80;;;;;;;14.75;100.00;100087.73;1941114;74;33554;-72
2021/10/05 11:24:13;;;;;;;46.93;44.03;;;;;;;14.32;100.00;100108.69;1941226;74;32997;-67
2021/10/05 11:29:40;;;;;;;46.70;43.87;;;;;;;14.08;100.00;100120.31;1940981;74;32974;-74
2021/10/05 11:35:06;;;;;;;46.67;43.77;;;;;;;14.02;100.00;100146.77;1941212;74;33543;-67
2021/10/05 11:40:31;;;;;;;49.00;46.00;;;;;;;13.86;100.00;100144.19;1940959;74;33095;-66
2021/10/05 11:45:56;;;;;;;44.43;41.73;;;;;;;14.02;100.00;100161.56;1941179;74;33452;-68
2021/10/05 11:51:23;;;;;;;42.20;39.63;;;;;;;14.09;100.00;100148.50;1941164;74;33499;-68
2021/10/05 11:56:49;;;;;;;40.20;38.00;;;;;;;14.32;100.00;100159.80;1941168;74;33005;-67
2021/10/05 12:02:24;;;;;;;38.57;36.40;;;;;;;14.71;100.00;100158.04;1941096;74;33605;-74
2021/10/05 12:07:50;;;;;;;53.57;42.50;;;;;;;14.89;100.00;100162.47;1941074;74;33511;-67
2021/10/05 12:13:18;;;;;;;38.53;36.50;;;;;;;15.15;100.00;100159.60;1940923;74;33036;-67
2021/10/05 12:18:43;;;;;;;37.53;35.57;;;;;;;15.16;100.00;100173.27;1941285;74;33507;-73
2021/10/05 12:24:09;;;;;;;39.47;37.37;;;;;;;14.93;100.00;100182.42;1940952;74;33045;-67
2021/10/05 12:29:51;;;;;;;33.50;31.70;;;;;;;15.08;100.00;100187.27;1941099;74;32960;-74
2021/10/05 12:35:30;;;;;;;35.80;34.00;;;;;;;15.12;100.00;100206.43;1941118;74;33018;-67
2021/10/05 12:41:01;;;;;;;32.93;31.33;;;;;;;15.11;100.00;100203.37;1941132;74;33478;-73
2021/10/05 12:46:35;;;;;;;32.17;30.57;;;;;;;15.25;100.00;100197.86;1940973;74;33049;-68
2021/10/05 12:52:07;;;;;;;30.70;29.20;;;;;;;15.62;100.00;100194.06;1941273;74;33475;-73
2021/10/05 12:57:32;;;;;;;24.17;23.07;;;;;;;15.86;100.00;100204.95;1941264;74;32994;-73
2021/10/05 13:02:57;;;;;;;26.90;25.53;;;;;;;15.56;100.00;100211.64;1940930;74;33062;-76
2021/10/05 13:08:21;;;;;;;26.60;25.40;;;;;;;15.56;100.00;100215.02;1940894;74;33016;-68
2021/10/05 13:13:46;;;;;;;30.93;29.53;;;;;;;15.56;100.00;100221.44;1941086;74;33074;-74
2021/10/05 13:19:14;;;;;;;30.17;28.67;;;;;;;15.38;100.00;100226.23;1940992;74;31074;-68
2021/10/05 13:24:41;;;;;;;32.00;30.43;;;;;;;15.31;100.00;100240.48;1941054;74;33034;-68
2021/10/05 13:30:07;;;;;;;29.80;28.30;;;;;;;15.24;100.00;100246.56;1940964;74;33034;-76
2021/10/05 13:35:32;;;;;;;36.83;34.90;;;;;;;15.00;100.00;100259.68;1940981;74;32953;-68
2021/10/05 13:40:57;;;;;;;41.03;38.83;;;;;;;14.88;100.00;100283.28;1941152;74;32987;-68
2021/10/05 13:46:21;;;;;;;45.67;43.27;;;;;;;14.94;100.00;100295.11;1940877;74;33091;-77
2021/10/05 13:51:46;;;;;;;42.70;40.20;;;;;;;15.00;100.00;100303.60;1940998;74;33094;-76
2021/10/05 13:57:10;;;;;;;44.70;42.20;;;;;;;15.10;100.00;100312.25;1940976;74;32997;-75
2021/10/05 14:02:36;;;;;;;42.10;39.80;;;;;;;15.12;100.00;100306.56;1941361;74;33471;-73
2021/10/05 14:08:01;;;;;;;36.23;34.43;;;;;;;15.81;100.00;100302.31;1940978;74;33037;-73
2021/10/05 14:13:26;;;;;;;40.33;38.13;;;;;;;16.23;100.00;100299.11;1940935;74;31222;-68
2021/10/05 14:18:51;;;;;;;43.30;40.80;;;;;;;15.75;100.00;100321.84;1941083;74;31024;-67
2021/10/05 14:24:19;;;;;;;45.00;42.50;;;;;;;15.27;100.00;100345.83;1940972;74;31061;-75
2021/10/05 14:29:43;;;;;;;41.90;39.60;;;;;;;14.94;100.00;100355.23;1940931;74;32990;-75
2021/10/05 14:35:10;;;;;;;41.43;39.07;;;;;;;15.14;100.00;100362.20;1941207;74;33582;-74
2021/10/05 14:40:35;;;;;;;41.43;38.93;;;;;;;15.11;100.00;100365.63;1941127;74;33565;-72
2021/10/05 14:46:20;;;;;;;44.97;42.47;;;;;;;15.04;100.00;100380.94;2009796;71;32824;-68
2021/10/05 14:51:44;;;;;;;42.07;39.83;;;;;;;15.07;100.00;100389.81;1940947;74;32995;-73
2021/10/05 14:57:09;;;;;;;38.10;36.00;;;;;;;15.16;100.00;100385.05;1940926;74;33038;-75
2021/10/05 15:02:35;;;;;;;34.77;32.87;;;;;;;15.54;100.00;100389.47;1941149;74;33479;-69
2021/10/05 15:08:00;;;;;;;31.87;29.87;;;;;;;15.90;100.00;100393.58;1941227;74;32957;-73
2021/10/05 15:13:24;;;;;;;33.00;31.07;;;;;;;15.56;100.00;100408.17;1941136;74;33552;-75
2021/10/05 15:18:49;;;;;;;30.70;29.03;;;;;;;15.36;100.00;100414.62;1941138;74;33081;-74
2021/10/05 15:24:13;;;;;;;31.33;29.57;;;;;;;15.35;100.00;100426.98;1941179;74;33520;-68
2021/10/05 15:29:38;;;;;;;28.93;27.43;;;;;;;15.29;100.00;100427.45;1941078;74;33073;-73
2021/10/05 15:35:05;;;;;;;29.00;27.30;;;;;;;15.47;100.00;100429.95;1941149;74;33418;-73
2021/10/05 15:40:34;;;;;;;29.70;28.17;;;;;;;15.41;100.00;100438.25;1940997;74;33026;-73
2021/10/05 15:45:56;;;;;;;32.90;30.87;;;;;;;15.21;100.00;100454.28;1941182;74;33041;-68
2021/10/05 15:51:26;;;;;;;32.43;30.67;;;;;;;15.10;100.00;100453.52;1940929;74;32953;-74
2021/10/05 15:56:53;;;;;;;29.97;28.37;;;;;;;15.18;100.00;100463.33;1940985;74;33099;-75
2021/10/05 16:02:26;;;;;;;29.63;28.13;;;;;;;15.19;100.00;100459.36;1941257;74;32991;-66
2021/10/05 16:07:53;;;;;;;34.20;32.23;;;;;;;15.19;100.00;100462.77;1941190;74;33095;-68
2021/10/05 16:13:18;;;;;;;29.67;28.07;;;;;;;15.24;100.00;100466.78;1940927;74;32986;-69
2021/10/05 16:18:44;;;;;;;26.93;25.40;;;;;;;15.29;100.00;100487.63;1941083;74;33399;-78
2021/10/05 16:24:10;;;;;;;25.90;24.60;;;;;;;15.05;100.00;100490.86;1940983;74;33090;-74
2021/10/05 16:29:35;;;;;;;26.93;25.63;;;;;;;15.12;100.00;100498.76;1941002;74;33784;-74
2021/10/05 16:35:01;;;;;;;28.23;26.73;;;;;;;15.01;100.00;100510.83;1941162;74;33612;-67
2021/10/05 16:40:26;;;;;;;29.87;28.17;;;;;;;15.21;100.00;100520.03;1940924;74;33058;-73
2021/10/05 16:45:52;;;;;;;29.07;27.53;;;;;;;14.97;100.00;100519.62;1940889;74;33022;-71
2021/10/05 16:51:17;;;;;;;33.43;31.83;;;;;;;14.83;100.00;100539.29;1941173;74;33402;-68
2021/10/05 16:56:42;;;;;;;28.50;27.00;;;;;;;14.59;100.00;100539.63;1941128;74;33508;-68
2021/10/05 17:02:09;;;;;;;28.37;26.87;;;;;;;14.66;100.00;100560.16;1941157;74;33508;-69
2021/10/05 17:07:33;;;;;;;24.47;23.27;;;;;;;14.64;100.00;100556.02;1941132;74;33048;-74
2021/10/05 17:12:59;;;;;;;25.27;24.07;;;;;;;14.80;100.00;100563.70;1940942;74;33066;-75
2021/10/05 17:18:25;;;;;;;27.83;26.43;;;;;;;14.67;100.00;100575.80;1941130;74;32990;-72
2021/10/05 17:23:50;;;;;;;29.03;27.43;;;;;;;14.66;100.00;100597.07;1940961;74;33031;-66
2021/10/05 17:29:20;;;;;;;26.10;24.70;;;;;;;14.48;100.00;100606.73;1941319;74;32951;-75
2021/10/05 17:34:45;;;;;;;26.80;25.40;;;;;;;14.41;100.00;100616.70;1941481;74;33018;-73
2021/10/05 17:40:13;;;;;;;26.90;25.47;;;;;;;14.33;100.00;100625.25;1941080;74;32959;-75
2021/10/05 17:45:40;;;;;;;26.47;25.17;;;;;;;14.31;100.00;100636.47;1941016;74;33138;-68
2021/10/05 17:51:05;;;;;;;26.43;25.03;;;;;;;14.38;100.00;100629.32;1940945;74;33028;-68
2021/10/05 17:56:30;;;;;;;30.20;28.60;;;;;;;14.35;100.00;100648.66;1940987;74;33043;-68
2021/10/05 18:01:54;;;;;;;28.13;26.73;;;;;;;14.04;100.00;100669.47;1941151;74;33486;-67
2021/10/05 18:07:24;;;;;;;28.53;27.07;;;;;;;14.18;100.00;100676.44;1940997;74;32958;-75
2021/10/05 18:12:49;;;;;;;32.03;30.43;;;;;;;14.06;100.00;100686.76;1941150;74;33440;-74
2021/10/05 18:18:14;;;;;;;32.67;30.90;;;;;;;14.30;100.00;100690.12;1941175;74;33469;-74
2021/10/05 18:23:39;;;;;;;36.67;34.67;;;;;;;13.71;100.00;100689.72;1941398;74;32995;-74
2021/10/05 18:29:12;;;;;;;33.70;32.03;;;;;;;13.69;100.00;100695.60;1941155;74;32964;-67
2021/10/05 18:34:36;;;;;;;34.50;32.70;;;;;;;13.85;100.00;100703.69;1940992;74;32945;-65
2021/10/05 18:40:01;;;;;;;36.87;34.80;;;;;;;13.71;100.00;100712.62;1941157;74;32954;-67
2021/10/05 18:45:29;;;;;;;34.60;32.70;;;;;;;13.66;100.00;100719.95;1941015;74;32938;-75
2021/10/05 18:50:53;;;;;;;35.43;33.43;;;;;;;13.66;100.00;100726.94;1941060;74;33051;-75
2021/10/05 18:56:18;;;;;;;36.33;34.33;;;;;;;13.49;100.00;100726.70;1941154;74;33492;-67
2021/10/05 19:01:42;;;;;;;36.33;34.33;;;;;;;13.54;100.00;100740.57;1941008;74;32955;-64
2021/10/05 19:07:07;;;;;;;37.00;34.90;;;;;;;13.46;100.00;100753.84;1941011;74;32944;-74
2021/10/05 19:12:31;;;;;;;37.03;35.03;;;;;;;13.44;100.00;100759.45;1940923;74;32946;-66
2021/10/05 19:17:57;;;;;;;36.33;34.33;;;;;;;13.33;100.00;100762.17;1940966;74;33007;-74
2021/10/05 19:23:21;;;;;;;36.93;35.00;;;;;;;13.36;100.00;100769.35;1941140;74;33006;-74
2021/10/05 19:29:05;;;;;;;35.93;34.03;;;;;;;13.25;100.00;100777.65;2000492;71;32817;-72
2021/10/05 19:34:31;;;;;;;35.57;33.67;;;;;;;13.19;100.00;100787.22;1941180;74;33449;-66
2021/10/05 19:40:02;;;;;;;36.53;34.53;;;;;;;13.13;100.00;100796.27;1940981;74;33022;-76
2021/10/05 19:45:27;;;;;;;37.93;35.80;;;;;;;13.08;100.00;100800.48;1941004;74;32951;-66
2021/10/05 19:50:51;;;;;;;35.60;33.60;;;;;;;13.09;100.00;100815.27;1941043;74;33014;-66
2021/10/05 19:56:16;;;;;;;39.03;36.73;;;;;;;12.96;100.00;100823.83;1941093;74;33039;-68
2021/10/05 20:01:40;;;;;;;38.20;36.10;;;;;;;12.88;100.00;100837.61;1941221;74;33452;-72
2021/10/05 20:07:06;;;;;;;40.53;38.13;;;;;;;12.74;100.00;100842.53;1941064;74;33055;-75
2021/10/05 20:12:30;;;;;;;40.43;37.97;;;;;;;12.82;100.00;100848.56;1941155;74;33052;-73
2021/10/05 20:17:55;;;;;;;40.67;38.27;;;;;;;12.70;100.00;100872.14;1941194;74;33504;-75
2021/10/05 20:23:19;;;;;;;41.07;38.77;;;;;;;12.73;100.00;100879.06;1941140;74;33613;-66
2021/10/05 20:25:51;;;;;;;39.60;37.23;;;;;;;12.72;100.00;100889.38;1904906;75;26235;-66
2021/10/05 20:28:23;;;;;;;38.53;36.23;;;;;;;12.67;100.00;100894.17;1905161;75;26226;-67
2021/10/05 20:33:48;;;;;;;39.30;37.03;;;;;;;12.72;100.00;100899.13;1941171;74;33532;-73
2021/10/05 20:39:14;;;;;;;40.60;38.20;;;;;;;12.70;100.00;100909.77;1940974;74;32983;-65
2021/10/05 20:44:38;;;;;;;42.13;39.83;;;;;;;12.63;100.00;100919.59;1941375;74;33486;-76
2021/10/05 20:50:03;;;;;;;39.60;37.37;;;;;;;12.68;100.00;100931.52;1941077;74;33624;-67
2021/10/05 20:55:28;;;;;;;42.63;40.13;;;;;;;12.67;100.00;100935.98;1940937;74;33089;-67
2021/10/05 21:00:52;;;;;;;41.67;39.20;;;;;;;12.68;100.00;100937.64;1941222;74;33593;-75
2021/10/05 21:06:19;;;;;;;41.50;38.97;;;;;;;12.56;100.00;100948.38;1941134;74;33017;-68
2021/10/05 21:11:43;;;;;;;42.73;40.13;;;;;;;12.45;100.00;100952.42;1941369;74;33053;-73
2021/10/05 21:17:08;;;;;;;40.90;38.50;;;;;;;12.29;100.00;100966.48;1941091;74;33011;-68
2021/10/05 21:22:32;;;;;;;42.07;39.37;;;;;;;12.35;100.00;100967.84;1940987;74;34007;-68
2021/10/05 21:27:57;;;;;;;42.67;39.93;;;;;;;12.34;100.00;100972.58;1940915;74;33083;-67
2021/10/05 21:33:28;;;;;;;43.30;40.70;;;;;;;12.27;100.00;100991.03;1941072;74;33071;-67
2021/10/05 21:38:53;;;;;;;41.13;38.73;;;;;;;12.31;100.00;100991.27;1941096;74;32973;-72
2021/10/05 21:44:18;;;;;;;42.00;39.47;;;;;;;12.22;100.00;100994.42;1940922;74;33049;-67
2021/10/05 21:49:44;;;;;;;42.23;39.50;;;;;;;12.18;100.00;100997.52;1941019;74;32988;-67
2021/10/05 21:55:10;;;;;;;43.63;41.03;;;;;;;12.25;100.00;101009.14;1941177;74;33461;-72
2021/10/05 22:00:35;;;;;;;43.00;40.57;;;;;;;12.32;100.00;101013.25;1940942;74;33033;-72
2021/10/05 22:06:00;;;;;;;41.80;39.47;;;;;;;12.27;100.00;101030.03;1940915;74;32980;-72
2021/10/05 22:11:24;;;;;;;42.83;40.43;;;;;;;12.24;100.00;101031.98;1941192;74;33002;-68
2021/10/05 22:16:49;;;;;;;41.50;39.20;;;;;;;12.21;100.00;101037.31;1941150;74;33572;-71
2021/10/05 22:22:14;;;;;;;43.33;40.63;;;;;;;12.26;100.00;101041.45;1941083;74;33494;-73
2021/10/05 22:27:39;;;;;;;42.30;39.53;;;;;;;12.23;100.00;101049.01;1941081;74;32985;-68
2021/10/05 22:33:05;;;;;;;43.20;40.90;;;;;;;12.18;100.00;101056.84;1941287;74;33043;-69
2021/10/05 22:38:31;;;;;;;42.87;40.57;;;;;;;12.32;100.00;101067.56;1940963;74;33036;-72
2021/10/05 22:43:56;;;;;;;41.20;38.90;;;;;;;12.26;100.00;101068.75;1941185;74;33548;-72
2021/10/05 22:49:21;;;;;;;42.60;40.13;;;;;;;12.32;100.00;101077.31;1941130;74;33456;-68
2021/10/05 22:54:45;;;;;;;43.73;41.23;;;;;;;12.07;100.00;101074.73;1941153;74;33450;-72
2021/10/05 23:00:12;;;;;;;46.80;43.90;;;;;;;12.15;100.00;101086.64;1941154;74;33601;-72
2021/10/05 23:05:37;;;;;;;45.00;42.50;;;;;;;12.03;100.00;101093.69;1940995;74;33057;-68
2021/10/05 23:11:04;;;;;;;45.67;42.87;;;;;;;12.08;100.00;101092.27;1940923;74;33081;-67
2021/10/05 23:16:29;;;;;;;44.40;41.93;;;;;;;11.93;100.00;101116.05;1941189;74;33571;-68
2021/10/05 23:21:54;;;;;;;45.37;42.40;;;;;;;11.96;100.00;101112.13;1941244;74;31222;-68
2021/10/05 23:27:19;;;;;;;44.17;41.57;;;;;;;11.92;100.00;101115.77;1941091;74;33052;-68
2021/10/05 23:32:44;;;;;;;45.27;42.47;;;;;;;11.92;100.00;101124.96;1941041;74;32994;-72
2021/10/05 23:38:09;;;;;;;42.93;40.50;;;;;;;11.92;100.00;101126.35;1941033;74;33080;-72
2021/10/05 23:43:33;;;;;;;41.10;38.70;;;;;;;11.84;100.00;101140.88;1941033;74;33050;-68
2021/10/05 23:49:00;;;;;;;33.73;31.47;;;;;;;12.02;100.00;101138.83;1941149;74;33539;-72
2021/10/05 23:54:24;;;;;;;34.37;32.47;;;;;;;11.89;100.00;101143.64;1940907;74;33036;-72
2021/10/05 23:59:49;;;;;;;34.13;32.03;;;;;;;11.92;100.00;101156.14;1940943;74;32943;-67
